Terminal Aerodrome Forecast
Issued by NWS

Home | Current Version | Previous Version | Text Only | Print | Product List | Glossary On
Versions: 1 2 3 4 5 6 7 8 9 10 11 12 13 14 15 16
386
FTUS43 KGRB 261734
TAFMTW
TAF
KMTW 261734Z 2618/2718 30013G24KT P6SM VCSH SCT035 OVC050
      TEMPO 2618/2620 6SM -SHRA
     FM262000 33013G22KT P6SM VCSH SCT035 OVC045
      TEMPO 2620/2624 -SHRA
     FM270000 33008KT P6SM BKN150
     FM270200 28006KT P6SM FEW250=

USA.gov is the U.S. government's official web portal to all federal, state and local government web resources and services.